createdAt,value
2019-02-14T00:01:38.998Z,47.50
2019-02-14T00:04:08.227Z,48.63
2019-02-14T00:06:37.481Z,48.53
2019-02-14T00:09:07.491Z,44.20
2019-02-14T00:11:37.085Z,46.27
2019-02-14T00:14:06.338Z,52.80
2019-02-14T00:16:35.961Z,45.60
2019-02-14T00:19:05.723Z,45.33
2019-02-14T00:21:35.228Z,43.57
2019-02-14T00:24:04.836Z,49.17
2019-02-14T00:26:34.652Z,46.13
2019-02-14T00:29:04.094Z,47.57
2019-02-14T00:31:33.294Z,42.57
2019-02-14T00:34:02.863Z,48.07
2019-02-14T00:36:32.443Z,50.97
2019-02-14T00:39:01.624Z,47.60
2019-02-14T00:41:30.840Z,50.63
2019-02-14T00:44:00.031Z,47.80
2019-02-14T00:46:29.331Z,51.87
2019-02-14T00:48:58.888Z,45.80
2019-02-14T00:51:28.342Z,53.93
2019-02-14T00:53:57.586Z,47.37
2019-02-14T00:56:26.852Z,50.20
2019-02-14T00:58:56.048Z,54.27
2019-02-14T01:01:25.332Z,50.20
2019-02-14T01:03:54.495Z,52.17
2019-02-14T01:06:23.692Z,51.40
2019-02-14T01:08:53.138Z,54.17
2019-02-14T01:11:22.735Z,46.20
2019-02-14T01:13:51.991Z,50.07
2019-02-14T01:16:21.307Z,52.83
2019-02-14T01:18:50.753Z,45.37
2019-02-14T01:21:19.916Z,52.33
2019-02-14T01:23:49.105Z,47.83
2019-02-14T01:26:18.643Z,45.30
2019-02-14T01:28:48.555Z,49.43
2019-02-14T01:31:17.875Z,51.27
2019-02-14T01:33:47.429Z,45.60
2019-02-14T01:36:16.687Z,45.33
2019-02-14T01:38:45.857Z,50.97
2019-02-14T01:41:15.125Z,52.57
2019-02-14T01:43:44.321Z,48.10
2019-02-14T01:46:13.477Z,56.60
2019-02-14T01:48:42.975Z,47.37
2019-02-14T01:51:12.227Z,52.83
2019-02-14T01:53:41.847Z,52.00
2019-02-14T01:56:11.359Z,47.10
2019-02-14T01:58:40.959Z,51.37
2019-02-14T02:01:10.136Z,45.03
2019-02-14T02:03:39.286Z,45.30
2019-02-14T02:06:08.522Z,45.27
2019-02-14T02:08:37.684Z,48.73
2019-02-14T02:11:07.442Z,45.83
2019-02-14T02:13:36.690Z,41.73
2019-02-14T02:16:05.974Z,46.87
2019-02-14T02:18:36.788Z,42.57
2019-02-14T02:21:05.957Z,44.60
2019-02-14T02:23:35.340Z,40.67
2019-02-14T02:26:04.577Z,43.60
2019-02-14T02:28:34.232Z,44.33
2019-02-14T02:31:03.776Z,50.23
2019-02-14T02:33:32.959Z,49.80
2019-02-14T02:36:02.492Z,42.27
2019-02-14T02:38:31.742Z,43.57
2019-02-14T02:41:00.936Z,41.00
2019-02-14T02:43:30.110Z,47.07
2019-02-14T02:45:59.290Z,44.57
2019-02-14T02:48:28.898Z,46.73
2019-02-14T02:50:58.148Z,40.57
2019-02-14T02:53:27.413Z,46.27
2019-02-14T02:55:57.464Z,45.10
2019-02-14T02:58:26.722Z,45.23
2019-02-14T03:00:55.928Z,46.67
2019-02-14T03:03:25.119Z,41.13
2019-02-14T03:05:54.360Z,44.87
2019-02-14T03:08:23.630Z,43.07
2019-02-14T03:10:54.209Z,43.57
2019-02-14T03:13:24.125Z,47.10
2019-02-14T03:15:53.299Z,44.07
2019-02-14T03:18:22.549Z,45.07
2019-02-14T03:20:51.715Z,41.27
2019-02-14T03:23:21.013Z,41.20
2019-02-14T03:25:50.341Z,43.57
2019-02-14T03:28:19.582Z,45.47
2019-02-14T03:30:48.819Z,42.20
2019-02-14T03:33:18.434Z,40.13
2019-02-14T03:35:47.634Z,40.27
2019-02-14T03:38:16.809Z,37.87
2019-02-14T03:40:46.284Z,36.93
2019-02-14T03:43:15.806Z,39.60
2019-02-14T03:45:45.423Z,41.20
2019-02-14T03:48:14.630Z,42.20
2019-02-14T03:50:43.891Z,38.90
2019-02-14T03:53:13.139Z,44.73
2019-02-14T03:55:42.308Z,43.87
2019-02-14T03:58:11.486Z,41.87
2019-02-14T04:00:40.737Z,44.40
2019-02-14T04:03:10.000Z,40.93
2019-02-14T04:05:39.218Z,44.30
2019-02-14T04:08:08.696Z,35.87
2019-02-14T04:10:37.852Z,42.17
2019-02-14T04:13:07.036Z,42.80
2019-02-14T04:15:36.784Z,49.03
2019-02-14T04:18:06.054Z,41.80
2019-02-14T04:20:35.628Z,43.20
2019-02-14T04:23:05.173Z,41.97
2019-02-14T04:25:34.705Z,46.07
2019-02-14T04:28:04.276Z,47.83
2019-02-14T04:30:33.483Z,45.50
2019-02-14T04:33:03.116Z,49.83
2019-02-14T04:35:32.380Z,48.53
2019-02-14T04:38:01.549Z,44.30
2019-02-14T04:40:33.586Z,50.40
2019-02-14T04:43:01.662Z,42.40
2019-02-14T04:45:30.841Z,39.73
2019-02-14T04:48:00.333Z,48.90
2019-02-14T04:50:30.034Z,41.07
2019-02-14T04:52:59.641Z,48.17
2019-02-14T04:55:28.783Z,42.63
2019-02-14T04:57:58.021Z,45.07
2019-02-14T05:00:27.218Z,43.07
2019-02-14T05:02:56.348Z,48.60
2019-02-14T05:05:25.612Z,48.90
2019-02-14T05:07:55.245Z,43.73
2019-02-14T05:10:24.505Z,40.10
2019-02-14T05:12:53.781Z,43.07
2019-02-14T05:15:23.381Z,38.33
2019-02-14T05:17:52.571Z,46.77
2019-02-14T05:20:22.130Z,41.63
2019-02-14T05:22:51.368Z,45.20
2019-02-14T05:25:20.609Z,41.53
2019-02-14T05:27:50.146Z,42.50
2019-02-14T05:30:19.321Z,40.03
2019-02-14T05:32:48.569Z,42.80
2019-02-14T05:35:17.751Z,44.07
2019-02-14T05:37:47.243Z,44.17
2019-02-14T05:40:16.418Z,45.50
2019-02-14T05:42:45.940Z,45.57
2019-02-14T05:45:15.098Z,41.77
2019-02-14T05:47:44.533Z,62.60
2019-02-14T05:50:14.413Z,45.77
2019-02-14T05:52:44.036Z,41.73
2019-02-14T05:55:13.632Z,40.93
2019-02-14T05:57:42.866Z,39.07
2019-02-14T06:00:13.081Z,45.20
2019-02-14T06:02:42.254Z,42.33
2019-02-14T06:05:11.508Z,49.13
2019-02-14T06:07:41.057Z,45.27
2019-02-14T06:10:10.313Z,43.33
2019-02-14T06:12:39.495Z,42.97
2019-02-14T06:15:09.335Z,44.63
2019-02-14T06:17:38.527Z,43.77
2019-02-14T06:20:08.574Z,39.47
2019-02-14T06:22:38.001Z,46.00
2019-02-14T06:25:07.666Z,50.50
2019-02-14T06:27:37.564Z,46.43
2019-02-14T06:30:08.502Z,50.23
2019-02-14T06:32:37.751Z,59.67
2019-02-14T06:35:07.443Z,71.43
2019-02-14T06:37:36.727Z,67.50
2019-02-14T06:40:07.347Z,73.27
2019-02-14T06:42:37.643Z,58.27
2019-02-14T06:45:08.629Z,56.73
2019-02-14T06:47:37.895Z,58.43
2019-02-14T06:50:08.331Z,66.37
2019-02-14T06:52:37.583Z,58.30
2019-02-14T06:55:07.267Z,57.53
2019-02-14T06:57:36.527Z,64.83
2019-02-14T07:00:06.631Z,77.73
2019-02-14T07:02:35.803Z,63.93
2019-02-14T07:05:05.372Z,57.30
2019-02-14T07:07:34.605Z,56.97
2019-02-14T07:10:04.719Z,53.70
2019-02-14T07:12:34.189Z,66.37
2019-02-14T07:15:03.832Z,55.60
2019-02-14T07:17:33.087Z,56.20
2019-02-14T07:20:02.247Z,53.83
2019-02-14T07:22:31.753Z,62.93
2019-02-14T07:25:01.057Z,59.23
2019-02-14T07:27:30.293Z,65.90
2019-02-14T07:29:59.525Z,54.40
2019-02-14T07:32:28.832Z,71.77
2019-02-14T07:34:58.044Z,63.30
2019-02-14T07:37:27.337Z,57.73
2019-02-14T07:39:56.524Z,55.13
2019-02-14T07:42:26.056Z,57.90
2019-02-14T07:44:55.322Z,69.63
2019-02-14T07:47:24.620Z,60.47
2019-02-14T07:49:54.118Z,60.57
2019-02-14T07:52:25.370Z,73.07
2019-02-14T07:54:54.804Z,85.87
2019-02-14T07:57:24.364Z,82.63
2019-02-14T07:59:53.511Z,85.87
2019-02-14T08:02:22.679Z,62.70
2019-02-14T08:04:51.853Z,62.50
2019-02-14T08:07:21.025Z,63.33
2019-02-14T08:09:50.199Z,69.60
2019-02-14T08:12:19.456Z,88.87
2019-02-14T08:14:49.318Z,75.07
2019-02-14T08:17:18.941Z,72.43
2019-02-14T08:19:48.464Z,77.40
2019-02-14T08:22:17.694Z,80.77
2019-02-14T08:24:48.945Z,68.57
2019-02-14T08:27:18.379Z,62.60
2019-02-14T08:29:47.909Z,58.53
2019-02-14T08:32:17.069Z,65.60
2019-02-14T08:34:46.612Z,59.03
2019-02-14T08:37:15.833Z,64.23
2019-02-14T08:39:45.135Z,72.13
2019-02-14T08:42:14.320Z,56.40
2019-02-14T08:44:43.566Z,51.50
2019-02-14T08:47:12.813Z,58.73
2019-02-14T08:49:41.983Z,61.73
2019-02-14T08:52:11.569Z,59.60
2019-02-14T08:54:40.718Z,53.40
2019-02-14T08:57:09.995Z,58.10
2019-02-14T08:59:39.574Z,54.03
2019-02-14T09:02:08.833Z,58.63
2019-02-14T09:04:38.071Z,51.63
2019-02-14T09:07:07.672Z,50.57
2019-02-14T09:09:56.600Z,51.73
2019-02-14T09:12:26.433Z,47.63
2019-02-14T09:14:55.634Z,52.47
2019-02-14T09:17:25.264Z,47.37
2019-02-14T09:19:54.803Z,54.60
2019-02-14T09:22:24.056Z,48.83
2019-02-14T09:24:53.869Z,49.93
2019-02-14T09:27:23.214Z,54.77
2019-02-14T09:29:52.786Z,48.17
2019-02-14T09:32:25.670Z,49.60
2019-02-14T09:34:54.946Z,43.67
2019-02-14T09:37:24.160Z,37.97
2019-02-14T09:39:53.408Z,56.00
2019-02-14T09:42:41.674Z,40.60
2019-02-14T09:45:11.565Z,37.73
2019-02-14T09:47:41.135Z,37.10
2019-02-14T09:50:11.280Z,39.37
2019-02-14T09:52:40.992Z,32.83
2019-02-14T09:55:10.683Z,30.80
2019-02-14T09:57:39.962Z,36.80
2019-02-14T10:00:14.932Z,40.63
2019-02-14T10:02:44.207Z,33.93
2019-02-14T10:05:14.113Z,35.93
2019-02-14T10:07:43.746Z,38.07
2019-02-14T10:10:15.201Z,37.20
2019-02-14T10:12:44.630Z,32.07
2019-02-14T10:15:14.172Z,40.17
2019-02-14T10:17:43.423Z,38.60
2019-02-14T10:20:14.530Z,27.53
2019-02-14T10:22:44.047Z,31.43
2019-02-14T10:25:13.677Z,31.80
2019-02-14T10:27:43.286Z,28.80
2019-02-14T10:30:15.028Z,33.90
2019-02-14T10:32:44.639Z,28.00
2019-02-14T10:35:13.915Z,28.77
2019-02-14T10:37:43.529Z,31.40
2019-02-14T10:40:13.490Z,36.23
2019-02-14T10:42:42.674Z,40.23
2019-02-14T10:45:14.125Z,27.33
2019-02-14T10:47:43.309Z,26.13
2019-02-14T10:50:12.471Z,27.57
2019-02-14T10:52:41.662Z,30.07
2019-02-14T10:55:11.834Z,23.73
2019-02-14T10:57:41.057Z,25.07
2019-02-14T11:00:18.450Z,21.40
2019-02-14T11:02:48.691Z,29.33
2019-02-14T11:05:18.598Z,33.07
2019-02-14T11:07:47.779Z,25.77
2019-02-14T11:10:17.080Z,23.30
2019-02-14T11:12:46.268Z,31.63
2019-02-14T11:15:17.048Z,36.33
2019-02-14T11:17:48.932Z,26.73
2019-02-14T11:20:18.356Z,27.67
2019-02-14T11:22:49.008Z,28.47
2019-02-14T11:25:21.431Z,22.63
2019-02-14T11:27:51.379Z,30.97
2019-02-14T11:30:21.062Z,27.17
2019-02-14T11:32:50.577Z,31.17
2019-02-14T11:35:19.748Z,26.42
2019-02-14T11:37:48.988Z,27.47
2019-02-14T11:40:18.203Z,22.98
2019-02-14T11:42:47.434Z,19.95
2019-02-14T11:45:17.579Z,22.57
2019-02-14T11:47:47.104Z,23.95
2019-02-14T11:50:16.716Z,22.48
2019-02-14T11:52:45.955Z,22.27
2019-02-14T11:55:15.163Z,28.20
2019-02-14T11:57:44.415Z,28.65
2019-02-14T12:00:17.555Z,27.77
2019-02-14T12:02:55.014Z,29.20
2019-02-14T12:05:18.847Z,22.13
2019-02-14T12:07:48.056Z,28.23
2019-02-14T12:10:17.292Z,27.05
2019-02-14T12:12:46.480Z,29.40
2019-02-14T12:15:16.033Z,28.35
2019-02-14T12:17:45.300Z,29.07
2019-02-14T12:20:14.547Z,21.33
2019-02-14T12:22:46.726Z,27.85
2019-02-14T12:25:15.124Z,23.18
2019-02-14T12:27:44.793Z,23.65
2019-02-14T12:30:14.921Z,20.43
2019-02-14T12:32:44.229Z,22.75
2019-02-14T12:35:14.022Z,24.47
2019-02-14T12:37:43.285Z,26.23
2019-02-14T12:40:13.107Z,22.50
2019-02-14T12:42:42.684Z,22.85
2019-02-14T12:45:20.326Z,22.90
2019-02-14T12:47:44.768Z,28.43
2019-02-14T12:50:14.294Z,21.73
2019-02-14T12:52:43.469Z,27.02
2019-02-14T12:55:12.796Z,21.27
2019-02-14T12:57:42.067Z,19.60
2019-02-14T13:00:17.047Z,20.72
2019-02-14T13:02:46.296Z,24.30
2019-02-14T13:05:16.129Z,29.95
2019-02-14T13:07:45.935Z,26.00
2019-02-14T13:10:16.044Z,25.80
2019-02-14T13:12:45.296Z,22.27
2019-02-14T13:15:16.954Z,19.82
2019-02-14T13:17:46.528Z,26.57
2019-02-14T13:20:15.765Z,18.10
2019-02-14T13:22:45.002Z,22.15
2019-02-14T13:25:14.742Z,23.15
2019-02-14T13:27:44.442Z,26.23
2019-02-14T13:30:16.509Z,22.62
2019-02-14T13:32:45.672Z,16.25
2019-02-14T13:35:14.910Z,19.35
2019-02-14T13:37:44.109Z,24.90
2019-02-14T13:40:13.535Z,20.95
2019-02-14T13:42:43.074Z,22.48
2019-02-14T13:45:13.991Z,19.82
2019-02-14T13:47:43.260Z,19.70
2019-02-14T13:50:12.636Z,18.50
2019-02-14T13:52:41.871Z,19.57
2019-02-14T13:55:11.559Z,18.62
2019-02-14T13:57:40.857Z,20.15
2019-02-14T14:00:18.965Z,16.90
2019-02-14T14:02:48.289Z,20.08
2019-02-14T14:05:17.878Z,15.58
2019-02-14T14:07:47.115Z,23.77
2019-02-14T14:10:16.389Z,14.90
2019-02-14T14:12:45.664Z,20.32
2019-02-14T14:15:14.903Z,22.15
2019-02-14T14:17:44.169Z,18.07
2019-02-14T14:20:13.451Z,28.07
2019-02-14T14:22:42.633Z,23.35
2019-02-14T14:25:12.565Z,21.65
2019-02-14T14:27:42.547Z,19.17
2019-02-14T14:30:11.953Z,17.92
2019-02-14T14:32:41.288Z,18.30
2019-02-14T14:35:11.447Z,18.32
2019-02-14T14:37:40.719Z,19.95
2019-02-14T14:40:11.128Z,18.87
2019-02-14T14:43:11.721Z,15.48
2019-02-14T14:45:58.615Z,27.25
2019-02-14T14:48:34.048Z,20.88
2019-02-14T14:51:03.604Z,19.15
2019-02-14T14:53:32.792Z,18.70
2019-02-14T14:56:01.996Z,17.23
2019-02-14T14:58:31.168Z,32.42
2019-02-14T15:01:00.732Z,19.73
2019-02-14T15:03:30.002Z,20.85
2019-02-14T15:05:59.199Z,17.73
2019-02-14T15:08:28.424Z,23.50
2019-02-14T15:10:57.606Z,27.43
2019-02-14T15:13:26.765Z,29.43
2019-02-14T15:15:56.282Z,20.60
2019-02-14T15:18:26.080Z,24.23
2019-02-14T15:20:55.286Z,29.83
2019-02-14T15:23:24.881Z,24.87
2019-02-14T15:25:54.235Z,46.33
2019-02-14T15:28:23.625Z,48.17
2019-02-14T15:30:52.884Z,43.27
2019-02-14T15:33:22.210Z,31.20
2019-02-14T15:35:51.679Z,29.07
2019-02-14T15:38:20.973Z,28.90
2019-02-14T15:40:50.540Z,31.13
2019-02-14T15:43:19.819Z,38.70
2019-02-14T15:45:49.022Z,29.47
2019-02-14T15:48:18.390Z,39.20
2019-02-14T15:50:47.703Z,26.73
2019-02-14T15:53:19.153Z,26.70
2019-02-14T15:55:49.164Z,24.67
2019-02-14T15:58:18.735Z,32.20
2019-02-14T16:00:49.536Z,29.30
2019-02-14T16:03:19.620Z,31.87
2019-02-14T16:05:48.958Z,38.73
2019-02-14T16:08:19.627Z,36.40
2019-02-14T16:10:53.131Z,34.80
2019-02-14T16:13:20.637Z,31.30
2019-02-14T16:15:50.799Z,30.53
2019-02-14T16:18:21.220Z,36.17
2019-02-14T16:20:51.096Z,39.23
2019-02-14T16:23:20.293Z,39.07
2019-02-14T16:25:51.662Z,36.07
2019-02-14T16:28:21.312Z,34.97
2019-02-14T16:30:52.388Z,42.20
2019-02-14T16:33:23.544Z,30.97
2019-02-14T16:35:52.682Z,34.53
2019-02-14T16:38:21.952Z,28.17
2019-02-14T16:40:51.153Z,34.23
2019-02-14T16:43:20.690Z,27.97
2019-02-14T16:45:49.910Z,30.50
2019-02-14T16:48:19.552Z,31.37
2019-02-14T16:50:48.714Z,25.90
2019-02-14T16:53:17.909Z,30.43
2019-02-14T16:55:47.420Z,34.33
2019-02-14T16:58:16.698Z,34.93
2019-02-14T17:00:46.183Z,32.87
2019-02-14T17:03:15.448Z,27.57
2019-02-14T17:05:44.673Z,30.10
2019-02-14T17:08:13.964Z,34.00
2019-02-14T17:10:43.195Z,28.00
2019-02-14T17:13:12.831Z,31.77
2019-02-14T17:15:42.090Z,37.07
2019-02-14T17:18:12.003Z,33.57
2019-02-14T17:20:41.715Z,36.40
2019-02-14T17:23:10.904Z,30.83
2019-02-14T17:25:40.209Z,33.80
2019-02-14T17:28:09.509Z,29.77
2019-02-14T17:30:39.180Z,37.17
2019-02-14T17:33:08.526Z,38.10
2019-02-14T17:35:38.106Z,39.03
2019-02-14T17:38:07.367Z,35.53
2019-02-14T17:40:45.635Z,38.50
2019-02-14T17:43:08.160Z,36.13
2019-02-14T17:45:37.439Z,38.20
2019-02-14T17:48:06.791Z,31.47
2019-02-14T17:50:36.087Z,32.27
2019-02-14T17:53:05.750Z,34.17
2019-02-14T17:55:35.376Z,35.07
2019-02-14T17:58:04.645Z,40.10
2019-02-14T18:00:33.996Z,36.60
2019-02-14T18:03:03.240Z,33.03
2019-02-14T18:05:32.855Z,37.67
2019-02-14T18:08:02.384Z,44.70
2019-02-14T18:10:31.648Z,42.97
2019-02-14T18:13:00.917Z,54.53
2019-02-14T18:15:30.355Z,53.83
2019-02-14T18:17:59.629Z,58.50
2019-02-14T18:20:28.962Z,52.97
2019-02-14T18:22:58.238Z,53.20
2019-02-14T18:25:27.861Z,56.73
2019-02-14T18:27:57.054Z,61.43
2019-02-14T18:30:26.734Z,53.93
2019-02-14T18:32:56.018Z,41.97
2019-02-14T18:35:25.267Z,57.27
2019-02-14T18:37:54.524Z,51.60
2019-02-14T18:40:24.080Z,57.53
2019-02-14T18:42:53.888Z,44.97
2019-02-14T18:45:23.160Z,46.17
2019-02-14T18:47:52.420Z,51.70
2019-02-14T18:50:21.769Z,52.90
2019-02-14T18:52:51.667Z,48.93
2019-02-14T18:55:20.917Z,61.73
2019-02-14T18:57:50.826Z,52.73
2019-02-14T19:00:20.102Z,57.03
2019-02-14T19:02:49.696Z,53.10
2019-02-14T19:05:19.267Z,50.23
2019-02-14T19:07:48.635Z,50.13
2019-02-14T19:10:17.976Z,56.70
2019-02-14T19:12:47.294Z,50.10
2019-02-14T19:15:16.541Z,58.60
2019-02-14T19:17:45.842Z,56.77
2019-02-14T19:20:15.162Z,51.43
2019-02-14T19:22:44.437Z,55.50
2019-02-14T19:25:13.917Z,56.17
2019-02-14T19:27:43.161Z,52.47
2019-02-14T19:30:12.731Z,49.60
2019-02-14T19:32:42.019Z,50.73
2019-02-14T19:35:11.526Z,46.77
2019-02-14T19:37:40.727Z,47.30
2019-02-14T19:40:10.670Z,48.30
2019-02-14T19:42:40.019Z,50.00
2019-02-14T19:45:09.564Z,51.07
2019-02-14T19:47:38.839Z,54.33
2019-02-14T19:50:08.907Z,61.97
2019-02-14T19:52:38.118Z,55.40
2019-02-14T19:55:07.992Z,59.77
2019-02-14T19:57:37.874Z,52.50
2019-02-14T20:00:08.919Z,53.47
2019-02-14T20:02:38.414Z,52.93
2019-02-14T20:05:10.451Z,58.17
2019-02-14T20:07:40.019Z,61.30
2019-02-14T20:10:10.644Z,50.23
2019-02-14T20:12:40.100Z,55.00
2019-02-14T20:15:12.189Z,60.43
2019-02-14T20:17:41.518Z,58.13
2019-02-14T20:20:11.157Z,62.47
2019-02-14T20:22:40.344Z,62.60
2019-02-14T20:25:10.960Z,54.90
2019-02-14T20:27:40.668Z,57.77
2019-02-14T20:30:10.320Z,59.83
2019-02-14T20:32:39.475Z,61.47
2019-02-14T20:35:09.270Z,55.20
2019-02-14T20:37:38.725Z,60.53
2019-02-14T20:40:08.531Z,62.83
2019-02-14T20:42:37.765Z,55.43
2019-02-14T20:45:07.629Z,58.50
2019-02-14T20:47:36.853Z,57.97
2019-02-14T20:50:06.802Z,60.73
2019-02-14T20:52:36.381Z,65.20
2019-02-14T20:55:06.338Z,58.70
2019-02-14T20:57:35.635Z,61.43
2019-02-14T21:00:06.872Z,58.13
2019-02-14T21:02:36.435Z,64.60
2019-02-14T21:05:05.923Z,54.87
2019-02-14T21:07:35.239Z,62.63
2019-02-14T21:10:05.092Z,59.70
2019-02-14T21:12:34.639Z,64.07
2019-02-14T21:15:03.912Z,58.10
2019-02-14T21:17:33.877Z,65.63
2019-02-14T21:20:03.174Z,57.73
2019-02-14T21:22:32.341Z,66.43
2019-02-14T21:25:01.883Z,60.63
2019-02-14T21:27:31.159Z,67.10
2019-02-14T21:30:00.495Z,60.80
2019-02-14T21:32:29.681Z,69.53
2019-02-14T21:34:58.932Z,65.43
2019-02-14T21:37:28.724Z,62.73
2019-02-14T21:42:43.668Z,59.80
2019-02-14T21:45:13.498Z,61.23
2019-02-14T21:47:42.841Z,61.23
2019-02-14T21:50:12.390Z,67.53
2019-02-14T21:52:42.165Z,55.87
2019-02-14T21:55:11.420Z,65.50
2019-02-14T21:57:40.973Z,77.27
2019-02-14T22:00:15.410Z,65.03
2019-02-14T22:02:45.234Z,65.90
2019-02-14T22:05:14.859Z,67.27
2019-02-14T22:07:44.107Z,68.43
2019-02-14T22:10:13.361Z,64.47
2019-02-14T22:12:43.948Z,61.07
2019-02-14T22:15:15.397Z,69.47
2019-02-14T22:17:44.682Z,67.67
2019-02-14T22:20:14.220Z,65.07
2019-02-14T22:22:43.800Z,67.13
2019-02-14T22:25:13.404Z,64.63
2019-02-14T22:27:42.675Z,63.30
2019-02-14T22:30:15.069Z,63.20
2019-02-14T22:32:44.677Z,65.67
2019-02-14T22:35:14.149Z,65.50
2019-02-14T22:37:43.481Z,64.97
2019-02-14T22:40:12.691Z,66.60
2019-02-14T22:42:47.324Z,67.60
2019-02-14T22:45:13.740Z,71.73
2019-02-14T22:47:43.964Z,66.70
2019-02-14T22:50:14.043Z,61.63
2019-02-14T22:52:43.365Z,68.93
2019-02-14T22:55:12.548Z,67.70
2019-02-14T22:57:41.781Z,65.37
2019-02-14T23:00:21.129Z,73.57
2019-02-14T23:02:50.967Z,70.47
2019-02-14T23:05:20.517Z,64.00
2019-02-14T23:07:50.122Z,63.13
2019-02-14T23:10:19.369Z,67.83
2019-02-14T23:12:55.441Z,66.00
2019-02-14T23:15:19.631Z,68.07
2019-02-14T23:17:49.189Z,70.97
2019-02-14T23:20:18.435Z,57.80
2019-02-14T23:22:47.660Z,61.63
2019-02-14T23:25:16.892Z,60.40
2019-02-14T23:27:46.140Z,56.63
2019-02-14T23:30:15.641Z,60.47
2019-02-14T23:32:44.902Z,59.40
2019-02-14T23:35:14.061Z,61.87
2019-02-14T23:37:43.576Z,64.03
2019-02-14T23:40:13.464Z,60.73
2019-02-14T23:42:42.654Z,65.73
2019-02-14T23:45:12.768Z,55.87
2019-02-14T23:47:41.998Z,55.10
2019-02-14T23:50:11.186Z,57.07
2019-02-14T23:52:40.672Z,61.47
2019-02-14T23:55:10.072Z,53.07
2019-02-14T23:57:39.540Z,55.30
